createdAt,value
2022-10-19T00:10:04.899Z,22
2022-10-19T00:39:09.781Z,23
2022-10-19T01:08:15.455Z,29
2022-10-19T01:37:18.414Z,35
2022-10-19T02:06:24.463Z,34
2022-10-19T02:35:33.944Z,31
2022-10-19T03:04:36.295Z,34
2022-10-19T03:33:41.701Z,25
2022-10-19T04:02:49.061Z,24
2022-10-19T04:31:55.223Z,27
2022-10-19T05:00:52.030Z,32
2022-10-19T05:29:53.764Z,30
2022-10-19T05:58:48.715Z,34
2022-10-19T06:27:57.534Z,26
2022-10-19T06:57:05.600Z,31
2022-10-19T07:26:15.957Z,31
2022-10-19T07:55:25.290Z,36
2022-10-19T08:24:39.533Z,36
2022-10-19T08:53:45.402Z,27
2022-10-19T09:22:57.665Z,30
2022-10-19T09:52:12.351Z,34
2022-10-19T10:21:26.568Z,34
2022-10-19T10:50:40.489Z,41
2022-10-19T11:19:52.007Z,35
2022-10-19T11:49:05.277Z,31
2022-10-19T12:18:16.760Z,27
2022-10-19T12:47:30.014Z,24
2022-10-19T13:16:41.958Z,20
2022-10-19T13:45:48.366Z,18
2022-10-19T14:14:56.735Z,15
2022-10-19T14:44:05.834Z,13
2022-10-19T15:13:04.749Z,11
2022-10-19T15:42:13.659Z,9
2022-10-19T16:11:21.059Z,10
2022-10-19T16:40:24.420Z,13
2022-10-19T17:09:41.162Z,40
2022-10-19T17:38:00.740Z,33
2022-10-19T18:07:06.333Z,13
2022-10-19T18:36:14.064Z,18
2022-10-19T19:05:21.587Z,13
2022-10-19T19:34:27.714Z,20
2022-10-19T20:03:35.162Z,14
2022-10-19T20:32:42.400Z,18
2022-10-19T21:01:50.405Z,18
2022-10-19T21:30:52.787Z,21
2022-10-19T21:59:55.337Z,20
2022-10-19T22:29:06.905Z,19
2022-10-19T22:58:47.858Z,15
2022-10-19T23:27:33.615Z,23
2022-10-19T23:56:24.744Z,30
